Latest METARs, TAFs and NOTAMs for VTSP


---------------------------------------------------------------------------
	(OBSERVATIONS)
VTSP 150400Z 29003KT 210V360 9999 FEW020 31/23 Q1012 NOSIG=
VTSP 150330Z VRB03KT 9999 FEW020 30/22 Q1013 NOSIG=
VTSP 150300Z VRB04KT 9999 FEW020 30/23 Q1013 NOSIG=
VTSP 150230Z 10006KT 060V140 9999 FEW020 29/23 Q1013 NOSIG=
VTSP 150200Z 09006KT 040V130 9999 FEW020 29/23 Q1013 NOSIG=
VTSP 150130Z 08004KT 360V110 9999 FEW020 28/23 Q1013 NOSIG=
---------------------------------------------------------------------------
	(TERMINAL AREA FORECAST)
VTSP 142300Z 1500/1606 VRB03KT 9000 FEW020
    BECMG 1502/1504 28006KT 9999
    PROB30 TEMPO 1510/1514 VRB10G20KT 3000 TSRA FEW016CB SCT020
    BKN100=
---------------------------------------------------------------------------
	(NOTAMS)


VTSP A2319/17 VISUAL DOCKING GUIDANCE SYSTEM (VDGS) ALL ACFT
    STAND NOT AVBL FOR ACFT TYPE A350-900 AND B787-900 RMK/ACFT
    HAVE TO FLW MARSHALLING SIGNALS STRICTLY. 22 SEP 04:50 2017
    UNTIL 22 DEC 05:00 2017. CREATED: 22 SEP 04:56 2017

VTSP A2475/09 C) 5 NM RADAR SEPARATION BETWEEN IFR AND VFR AIRCRAFT.
    D) BETWEEN VFR AIRCRAFT ? TRAFFIC ADVISORIES AND AS APPROPRIATE
    SAFETY ALERT, AND ALSO INFORMATION TO ENABLE THEM TO FIT
    INTO THE LANDING SEQUENCE. - SSR RADAR APPROACH CONTROL SERVICE
    TO AIRCRAFT PROCEEDING TO PHUKET OR KRABI IN THIS PROGRAMME
    WILL BE TERMINATED AT A SUFFICIENT DISTANCE TO ALLOW TIME
    TO CHANGE TO THE APPROPRIATE TOWER FREQUENCY. -RADAR TECHNICAL
    DETIALS AND COVERAGE A) SECONDARY SURVEILLANCE RADAR - STATION
    : AT BANG DUK HILL PHUKET POSITION 080801.6167 N 0981946.5493
    E - RANGE : 250 NM WITH FOLLOWING LIMITATIONS: - SCAN RATE
    : 12 RPM B) VERTICAL COVERAGE 1) ALTITUDE 3 000 FEET WITHIN
    56 NM 2) ALTITUDE 4 000 FEET WITHIN 56 NM 3) ALTITUDE 6 000
    FEET WITHIN 99 NM 4) ALTITUDE 8 000 FEET WITHIN 106 NM 5)
    ALTITUDE 11 000 FEET WITHIN 119 NM C) HOURS OF OPERATION
    HOURS OF OPERATION WILL BE 24 HOURS WITH THE EXCEPTION OF
    SCHEDULED PREVENTIVE MAINTENANCE PERIOD: THE THIRD FRIDAY
    OF EACH MONTH FROM 1230-1500 UTC PART 4 OF 4 PARTS. 19 OCT
    01:37 2009 UNTIL PERM. CREATED: 19 OCT 01:41 2009

VTSP A2619/17 OBST ERECTED DETAIL AS FLW : 1. TREE AT 080649.3N0981808.52E
    DIST 65M BEFORE THR RWY 09, 200M NORTH OF EXTENDED RCL, HGT
    100FT 2. TREE AT 080652.75N0981835.01E DIST 730M BEYOND THR
    RWY 09, 265M NORTH OF RCL, HGT 50FT 3. TREE AT 080638.8N0981843.41E
    DIST 930M BEYOND THR RWY 09, 210M SOUTH OF RCL, HGT 105FT
    4. ELECTRIC POLE AT 080646.01N0981941.19E DIST 270M BEYOND
    THR RWY 27, 160M SOUTH OF RCL, HGT 42FT. 24 OCT 05:55 2017
    UNTIL 24 JAN 05:00 2018. CREATED: 24 OCT 06:00 2017

VTSP A2632/17 BIRD CONCENTRATION IN THE VICINITY OF AD. 25 OCT
    03:40 2017 UNTIL 27 JAN 02:00 2018. CREATED: 25 OCT 03:44
    2017

VTSP A2657/17 LOCAL AERODROME REGULATIONS TO PREVENT RWY PAVEMENT
    DAMAGE WHICH MAY RESULT IN THE CLOSURE OF THE AERODROME IF
    SUCH DAMAGE IS SERVE, ACFT CODE LETTER C OR HIGHER SHALL
    MAKE A 180 DEG TURN AT THE RWY TURN PADS LOCATED ON BOTH
    END OF RWY. 29 OCT 02:10 2017 UNTIL 01 FEB 10:00 2018. CREATED:
    29 OCT 02:11 2017

VTSP A2915/17 RWY 09/27 CLSD DUE TO WIP. DLY 1900-2359, 10 JAN
    19:00 2018 UNTIL 21 JAN 23:59 2018. CREATED: 29 NOV 08:32
    2017

VTSP A2918/17 OBST MOBILE CRANE ERECTED AT 080627.13N0981823.80E
    (IN FRONT OF DOMESTIC PASSENGER TERMINAL) HGT 138FT. 02 DEC
    16:00 2017 UNTIL 02 MAR 16:00 2018. CREATED: 30 NOV 03:44
    2017

VTSP A2946/17 DUE TO AIR TRAFFIC CONTROL TOWER RENOVATION AND
    AERODROME CONTROL SERVICE MOVE TO OPERATE IN TEMPORARY CONTROL
    ROOM WITH LIMITED VISION BETWEEN RADIAL R110-R250 PUT DVOR,
    ALL AIRCRAFT MAY EXPERIENCE SOME INCONVENIENCES, ESPECIALLY
    AS USING AERODROME TRAFFIC CIRCUIT NORTH ONLY FOR LANDING,
    OVERFLYING AND TRAINING PURPOSE, RWY 09 BY ENTERING LEFT
    TRAFFIC CIRCUIT AND RWY 27 BY ENTERING RIGHT TRAFFIC CIRCUIT.
    01 DEC 00:07 2017 UNTIL 28 FEB 11:30 2018. CREATED: 01 DEC
    00:09 2017

VTSP A2963/17 VISUAL DOCKING GUIDANCE SYSTEM (VDGS) ACFT STAND
    NR 31 U/S RMK/ACFT HAVE TO FLW MARSHALLING SIGNALS STRICTLY.
    02 DEC 07:30 2017 UNTIL 02 MAR 10:00 2018. CREATED: 02 DEC
    07:31 2017

VTSP A2965/17 VISUAL DOCKING GUIDANCE SYSTEM (VDGS) ACFT STAND
    NR 10 U/S RMK/ACFT HAVE TO FLW MARSHALLING SIGNALS STRICTLY.
    02 DEC 12:33 2017 UNTIL 17 DEC 10:00 2017. CREATED: 02 DEC
    12:40 2017

VTSP A3035/17 REF AIP SUP A41/17 TEMPORARY CHANGE OF AIRCRAFT
    STANDS DUE TO RENOVATION PHUKET INTERNATIONAL AIRPORT ITEM
    1 DISRUPTION OF AIRSIDE FACILITIES AMD AS FLW: A. AIRCRAFT
    STAND 5 WILL BE TEMPORARILY CLOSED. B. AIRCRAFT STANDS 4,6
    AND 7 ARE RESTRICTED ONLY FOR AIRCRAFT CODE C AND BELOW.
    C. AVIATION BRIDGE 7 ARE SERVICEABLE AND AVIATION BRIDGES
    4 AND 6 ARE ADJUSTED TO REMOTE PARKING. E. VISUAL DOCKING
    SYSTEM(VDGS) AT AIRCRAFT STANDS 4,6 AND 7 WILL BE UNSERVICEABLE
    MARSHALLER SHALL GUIDE THE AIRCRAFT TO THE PARKING POSITION.
    11 DEC 13:00 2017 UNTIL 31 JAN 10:00 2018. CREATED: 11 DEC
    11:15 2017

VTSP A3046/17 WDI (WINDSOCK) RWY 09 U/S. 13 DEC 09:21 2017 UNTIL
    13 MAR 10:00 2018. CREATED: 13 DEC 09:23 2017

VTSP A4629/13 THE ARRIVAL CONTROL AIRSPACE WILL BE ESTABLISHED
    FOR OPERATION TO PROVIDE AIR TRAFFIC SERVICES FOR ARRIVING
    AIRCRAFT WITHIN PHUKET TMA AND PHUKET CTR THE DETAILS ARE
    AS FOLLOWS: 1. UNIT PROVIDING SERVICE: PHUKET APPROACH CONTROL
    RADAR ARRIVAL 2. CALL SIGN: PHUKET ARRIVAL 3. FREQUENCY:
    120.7MHZ 4. TYPE OF SERVICE: RADAR SERVICE ONLY 5. THE AREA
    OF RESPONSIBILITY: THE DETAILS ARE AS FOLLOWS: 5.1 LANDING
    RWY 09 THE AIRSPACE WITHIN THE AREA DEFINED BY THE STRAIGHT
    LINE FROM PUT DVOR/DME (080654.83N0981822.69E) TO RDL220/30
    DME THENCE CLOCKWISE BY THE ARC OF 30 DME RADIUS CENTRE OF
    PUT TO PUT RDL310/30 DME THENCE STRAIGHT LINE TO PUT DVOR/DME
    ALTITUDE FROM GND UP TO 6000FT WITHIN 10 DME AND ALTITUDE
    2000FT UP TO 6000FT BTN 10-30 DME 5.2 LANDING RWY 27 THE
    AIRSPACE WITHIN THE AREA DEFINED BY THE STRAIGHT LINE FROM
    PUT DVOR/DME (080654.83N0981822.69E) TO RDL040/30 DME THENCE
    CLOCKWISE BY THE ARC OF 30 DME RADIUS CENTRE OF PUT TO PUT
    RDL130/30 DME THENCE STRAIGHT LINE TO PUT DVOR/DME ALTITUDE
    FROM GND UP TO 6000FT WITHIN 10 DME AND ALTITUDE 2000FT UP
    TO 6000FT BTN 10-30 DME. 29 DEC 03:05 2013 UNTIL PERM. CREATED:
    01 NOV 07:12 2017

VTSP G8779/17 GPS RAIM PREDICTION FOR: TSO-C129 FAULT DETECTION
    NO GPS RAIM OUTAGES TSO-C146A FAULT DETECTION ONLY NO GPS
    RAIM OUTAGES TSO-C146A FAULT DETECTION WITH EXCLUSION NO
    GPS RAIM OUTAGES. 15 DEC 00:26 2017 UNTIL 16 DEC 23:59 2017.
    CREATED: 15 DEC 00:39 2017

VTSP V1298/17 [US DOD PROCEDURAL NOTAM] INSTRUMENT APPROACH PROCEDURE
    COMPLETELY WITHDRAWN RNAV (RNP) Y RWY 27. 07 DEC 15:14 2017
    UNTIL 01 FEB 10:00 2018. CREATED: 07 DEC 15:14 2017

VTSP V1299/17 [US DOD PROCEDURAL NOTAM] INSTRUMENT APPROACH PROCEDURE
    COMPLETELY WITHDRAWN RNAV (RNP) Y RWY 09. 07 DEC 15:16 2017
    UNTIL 01 FEB 10:00 2018. CREATED: 07 DEC 15:16 2017

---------------------------------------------------------------------------